Time;durP1;ratioP1;P1;durP2;ratioP2;P2;SDS_P1;SDS_P2;PMS_P1;PMS_P2;Temp;Humidity;BMP_temperature;BMP_pressure;BME280_temperature;BME280_humidity;BME280_pressure;Samples;Min_cycle;Max_cycle;Signal;HPM_P1;HPM_P2
2021/12/02 00:01:16;;;;;;;;;;;;;;;5.49;83.33;98925.13;4857279;29;19922;-69
2021/12/02 00:04:19;;;;;;;;;;;;;;;5.57;84.81;98918.56;4856823;29;19947;-69
2021/12/02 00:07:23;;;;;;;;;;;;;;;5.44;84.39;98919.38;4857392;29;19976;-69
2021/12/02 00:10:30;;;;;;;;;;;;;;;5.31;84.33;98927.84;4856868;29;19939;-68
2021/12/02 00:23:28;;;;;;;;;;;;;;;5.33;85.47;98920.81;4839461;29;20397;-68
2021/12/02 00:26:32;;;;;;;;;;;;;;;5.45;84.74;98928.81;4839423;29;20387;-68
2021/12/02 00:29:36;;;;;;;;;;;;;;;5.41;83.62;98932.50;4838724;29;19923;-68
2021/12/02 00:32:41;;;;;;;;;;;;;;;5.10;84.07;98923.84;4832149;29;19971;-69
2021/12/02 00:35:44;;;;;;;;;;;;;;;5.13;84.81;98928.84;4856965;29;19927;-69
2021/12/02 00:38:48;;;;;;;;;;;;;;;5.16;84.61;98923.50;4857240;29;20002;-68
2021/12/02 00:41:52;;;;;;;;;;;;;;;5.23;84.02;98937.81;4858000;29;19974;-68
2021/12/02 00:44:57;;;;;;;;;;;;;;;5.06;84.78;98932.72;4857890;29;19923;-68
2021/12/02 00:48:00;;;;;;;;;;;;;;;4.99;84.13;98921.03;4831276;29;19924;-68
2021/12/02 00:51:05;;;;;;;;;;;;;;;5.28;84.08;98920.22;4838593;29;20431;-68
2021/12/02 00:54:09;;;;;;;;;;;;;;;5.07;84.52;98929.19;4838490;29;19927;-69
2021/12/02 00:57:12;;;;;;;;;;;;;;;5.24;84.77;98936.88;4838268;29;19927;-68
2021/12/02 01:00:15;;;;;;;;;;;;;;;5.17;83.93;98935.56;4847311;29;19972;-68
2021/12/02 01:03:19;;;;;;;;;;;;;;;5.25;83.10;98935.94;4857154;29;19923;-68
2021/12/02 01:06:22;;;;;;;;;;;;;;;5.17;84.12;98935.56;4856945;29;19930;-69
2021/12/02 01:09:26;;;;;;;;;;;;;;;5.30;83.76;98939.13;4856415;29;19950;-68
2021/12/02 01:12:29;;;;;;;;;;;;;;;5.29;82.76;98947.81;4844613;29;19927;-69
2021/12/02 01:15:32;;;;;;;;;;;;;;;5.20;83.02;98935.38;4855614;29;19975;-68
2021/12/02 01:18:35;;;;;;;;;;;;;;;5.30;83.49;98946.06;4857090;29;20417;-68
2021/12/02 01:21:40;;;;;;;;;;;;;;;5.34;84.18;98942.38;4856673;29;20171;-68
2021/12/02 01:24:48;;;;;;;;;;;;;;;5.44;84.54;98947.88;4856376;29;19922;-68
2021/12/02 01:27:51;;;;;;;;;;;;;;;5.52;84.47;98945.69;4856467;29;19923;-69
2021/12/02 01:30:54;;;;;;;;;;;;;;;5.48;84.98;98949.38;4841112;29;19927;-68
2021/12/02 01:34:00;;;;;;;;;;;;;;;5.38;84.77;98951.66;4826390;29;19923;-69
2021/12/02 01:37:08;;;;;;;;;;;;;;;5.11;83.75;98954.03;4837802;29;19927;-69
2021/12/02 01:40:11;;;;;;;;;;;;;;;5.13;83.81;98962.53;4837756;29;19969;-69
2021/12/02 01:43:15;;;;;;;;;;;;;;;5.32;84.09;98963.19;4838124;29;19927;-68
2021/12/02 01:46:20;;;;;;;;;;;;;;;5.46;81.88;98961.59;4837933;29;20350;-69
2021/12/02 01:49:30;;;;;;;;;;;;;;;5.46;82.29;98954.66;4837224;29;19923;-68
2021/12/02 01:52:35;;;;;;;;;;;;;;;5.56;82.22;98948.03;4837495;29;19948;-68
2021/12/02 01:55:41;;;;;;;;;;;;;;;5.35;82.79;98955.25;4837161;29;20347;-69
2021/12/02 01:58:46;;;;;;;;;;;;;;;5.17;82.14;98951.09;4836286;29;20397;-68
2021/12/02 02:01:51;;;;;;;;;;;;;;;5.11;80.45;98962.63;4855293;29;19987;-70
2021/12/02 02:05:01;;;;;;;;;;;;;;;5.06;81.93;98958.63;4855869;29;19923;-68
2021/12/02 02:08:06;;;;;;;;;;;;;;;5.20;82.06;98953.53;4855554;29;19923;-68
2021/12/02 02:11:09;;;;;;;;;;;;;;;5.27;82.42;98947.06;4855825;29;20310;-68
2021/12/02 02:14:12;;;;;;;;;;;;;;;5.15;82.66;98946.91;4838364;29;20331;-68
2021/12/02 02:17:26;;;;;;;;;;;;;;;5.03;82.81;98946.66;4837424;29;19928;-68
2021/12/02 02:20:47;;;;;;;;;;;;;;;4.98;82.56;98945.22;4837736;29;19945;-68
2021/12/02 02:23:55;;;;;;;;;;;;;;;5.05;82.79;98949.19;4836868;29;20390;-68
2021/12/02 02:26:59;;;;;;;;;;;;;;;5.13;82.75;98949.56;4836246;29;19997;-68
2021/12/02 02:30:02;;;;;;;;;;;;;;;4.93;82.34;98948.09;4837642;29;19962;-68
2021/12/02 02:33:06;;;;;;;;;;;;;;;4.75;83.02;98964.59;4837620;29;20012;-68
2021/12/02 02:36:09;;;;;;;;;;;;;;;4.74;83.27;98961.19;4841040;29;19999;-68
2021/12/02 02:39:12;;;;;;;;;;;;;;;4.65;83.36;98954.72;4840815;29;20328;-68
2021/12/02 02:42:15;;;;;;;;;;;;;;;4.79;83.39;98956.59;4852375;29;19927;-68
2021/12/02 02:45:18;;;;;;;;;;;;;;;4.80;82.15;98958.28;4859232;29;19970;-68
2021/12/02 02:48:21;;;;;;;;;;;;;;;4.83;81.97;98952.94;4859680;29;19923;-68
2021/12/02 02:51:24;;;;;;;;;;;;;;;4.66;82.36;98953.84;4859633;29;20441;-68
2021/12/02 02:54:27;;;;;;;;;;;;;;;4.72;82.28;98957.84;4858900;29;20440;-68
2021/12/02 02:57:38;;;;;;;;;;;;;;;4.89;81.74;98952.59;4858495;29;20385;-68
2021/12/02 03:00:52;;;;;;;;;;;;;;;4.75;82.08;98949.91;4858044;29;19923;-68
2021/12/02 03:04:09;;;;;;;;;;;;;;;4.84;81.95;98952.00;4858686;29;20376;-68
2021/12/02 03:07:37;;;;;;;;;;;;;;;4.73;81.80;98956.94;4859767;29;19983;-68
2021/12/02 03:13:50;;;;;;;;;;;;;;;4.61;81.93;98962.75;4858351;29;19943;-68
2021/12/02 03:16:53;;;;;;;;;;;;;;;4.53;82.43;98951.97;4858266;29;19970;-68
2021/12/02 03:19:56;;;;;;;;;;;;;;;4.77;81.75;98949.84;4859143;29;20442;-68
2021/12/02 03:23:00;;;;;;;;;;;;;;;4.78;81.88;98952.31;4859220;29;19924;-68
2021/12/02 03:26:03;;;;;;;;;;;;;;;4.86;81.60;98957.94;4840442;29;20322;-68
2021/12/02 03:29:06;;;;;;;;;;;;;;;4.68;81.37;98958.91;4840169;29;19988;-68
2021/12/02 03:32:10;;;;;;;;;;;;;;;4.83;81.40;98960.69;4839824;29;20431;-68
2021/12/02 03:35:13;;;;;;;;;;;;;;;4.74;81.68;98958.59;4839534;29;19927;-68
2021/12/02 03:38:17;;;;;;;;;;;;;;;4.73;82.20;98964.69;4839656;29;19939;-67
2021/12/02 03:41:20;;;;;;;;;;;;;;;4.69;82.20;98960.63;4845148;29;19998;-70
2021/12/02 03:44:24;;;;;;;;;;;;;;;4.69;82.29;98947.66;4858598;29;19923;-68
2021/12/02 03:47:27;;;;;;;;;;;;;;;4.80;81.94;98953.09;4858077;29;19923;-68
2021/12/02 03:50:31;;;;;;;;;;;;;;;4.52;82.44;98956.31;4857892;29;20016;-68
2021/12/02 03:53:34;;;;;;;;;;;;;;;4.60;81.83;98948.97;4845855;29;20405;-68
2021/12/02 03:56:37;;;;;;;;;;;;;;;4.59;81.85;98949.03;4840022;29;20064;-68
2021/12/02 03:59:41;;;;;;;;;;;;;;;4.55;82.12;98957.91;4844513;29;19923;-68
2021/12/02 04:14:27;;;;;;;5.22;1.00;;;;;;;4.58;83.76;98942.22;5124655;27;20718;-71
2021/12/02 04:17:43;;;;;;;4.55;0.90;;;;;;;4.76;83.58;98951.59;5110769;28;20088;-70
2021/12/02 04:20:46;;;;;;;6.45;1.73;;;;;;;4.92;83.42;98945.59;5104922;28;20092;-70
2021/12/02 04:23:50;;;;;;;4.35;1.30;;;;;;;4.98;82.96;98946.09;5104760;28;20042;-71
2021/12/02 04:26:54;;;;;;;4.65;0.90;;;;;;;4.99;83.42;98937.41;5104975;28;20043;-69
2021/12/02 04:29:57;;;;;;;11.68;1.00;;;;;;;4.96;83.97;98941.91;5105197;28;20047;-69
2021/12/02 04:33:00;;;;;;;6.45;0.82;;;;;;;4.90;83.06;98949.09;5104077;28;20273;-70
2021/12/02 04:36:06;;;;;;;10.57;1.27;;;;;;;4.94;83.57;98947.16;5103853;28;20112;-69
2021/12/02 04:39:11;;;;;;;4.30;0.80;;;;;;;5.04;83.10;98950.06;5103949;28;20051;-70
2021/12/02 04:42:14;;;;;;;4.35;0.88;;;;;;;4.99;83.62;98941.75;5101006;28;20461;-70
2021/12/02 04:45:17;;;;;;;;;;;;;;;5.03;83.76;98953.59;5103229;28;20411;-69
2021/12/02 04:48:21;;;;;;;4.75;1.02;;;;;;;4.94;83.94;98956.69;5098019;28;19970;-69
2021/12/02 04:51:24;;;;;;;5.90;1.08;;;;;;;4.70;85.44;98951.09;5103804;28;20100;-70
2021/12/02 04:54:27;;;;;;;;;;;;;;;4.87;84.61;98944.06;5104116;28;20578;-69
2021/12/02 04:57:30;;;;;;;3.35;0.60;;;;;;;4.98;84.74;98953.00;5103632;28;20415;-70
2021/12/02 05:00:34;;;;;;;;;;;;;;;5.05;84.37;98950.00;5103625;28;20152;-69
2021/12/02 05:03:37;;;;;;;9.00;1.30;;;;;;;4.87;84.91;98953.59;5083039;28;19938;-69
2021/12/02 05:06:40;;;;;;;3.42;0.70;;;;;;;4.83;85.49;98960.69;5081975;28;20101;-69
2021/12/02 05:09:43;;;;;;;;;;;;;;;4.89;85.51;98957.78;5083821;28;20231;-69
2021/12/02 05:12:47;;;;;;;3.25;0.60;;;;;;;4.94;85.43;98946.31;5082888;28;20053;-69
2021/12/02 05:15:50;;;;;;;3.58;0.70;;;;;;;4.90;85.20;98959.44;5075505;28;20051;-69
2021/12/02 05:18:53;;;;;;;5.35;0.80;;;;;;;4.99;84.80;98972.81;5088712;28;20043;-69
2021/12/02 05:21:57;;;;;;;6.32;0.80;;;;;;;5.04;84.06;98968.22;5069722;28;20039;-69
2021/12/02 05:25:01;;;;;;;4.35;0.80;;;;;;;5.10;83.89;98975.66;5070267;28;20103;-70
2021/12/02 05:28:04;;;;;;;2.75;0.60;;;;;;;5.11;84.14;98967.81;5073676;28;20186;-70
2021/12/02 05:31:08;;;;;;;;;;;;;;;5.12;84.08;98979.00;5089329;28;20097;-69
2021/12/02 05:34:11;;;;;;;3.38;0.88;;;;;;;5.16;84.20;98980.50;5089504;28;19923;-70
2021/12/02 05:37:15;;;;;;;;;;;;;;;4.27;85.45;98980.03;5089750;28;20097;-70
2021/12/02 05:40:18;;;;;;;6.10;1.02;;;;;;;4.48;85.44;98982.44;5089506;28;19965;-69
2021/12/02 05:43:22;;;;;;;2.72;0.60;;;;;;;4.24;84.19;98982.75;5087416;28;20097;-69
2021/12/02 05:46:26;;;;;;;3.70;0.70;;;;;;;4.58;84.06;98981.03;5083152;28;20093;-69
2021/12/02 05:49:30;;;;;;;2.55;0.55;;;;;;;4.53;82.58;98980.44;5086591;28;20644;-69
2021/12/02 05:52:33;;;;;;;2.10;0.40;;;;;;;4.28;82.36;98986.06;5089678;28;20038;-69
2021/12/02 05:55:36;;;;;;;2.33;0.80;;;;;;;4.11;84.29;98992.91;5084999;28;20459;-70
2021/12/02 05:58:40;;;;;;;2.40;0.55;;;;;;;4.06;83.12;98992.31;5088246;28;20513;-70
2021/12/02 06:01:43;;;;;;;4.05;0.60;;;;;;;4.14;83.21;98990.16;5088555;28;20142;-70
2021/12/02 06:04:50;;;;;;;2.17;0.40;;;;;;;4.14;83.20;98994.50;5088077;28;20055;-70
2021/12/02 06:14:14;;;;;;;3.95;0.70;;;;;;;4.27;82.59;98990.38;5243042;23;20044;-64
2021/12/02 06:17:17;;;;;;;;;;;;;;;4.42;83.31;98983.59;4912535;29;20051;-65
2021/12/02 06:20:21;;;;;;;3.33;1.08;;;;;;;4.59;82.36;98987.88;4928278;29;19921;-65
2021/12/02 06:23:24;;;;;;;;;;;;;;;4.45;82.04;98990.38;4931457;29;20050;-64
2021/12/02 06:26:28;;;;;;;16.55;10.10;;;;;;;3.95;83.49;99000.59;4929853;29;20026;-65
2021/12/02 06:29:31;;;;;;;;;;;;;;;4.32;82.77;99003.91;4931741;29;20613;-66
2021/12/02 06:32:34;;;;;;;6.85;4.63;;;;;;;4.27;83.19;99002.47;4934125;29;19922;-66
2021/12/02 06:36:00;;;;;;;3.95;1.92;;;;;;;4.19;83.78;99002.88;4937545;28;20058;-66
2021/12/02 06:39:05;;;;;;;5.75;2.80;;;;;;;4.28;83.44;99007.59;4950029;28;20101;-67
2021/12/02 06:42:08;;;;;;;3.83;1.13;;;;;;;4.29;83.15;99008.41;4950583;28;20101;-66
2021/12/02 06:45:13;;;;;;;2.83;1.00;;;;;;;4.56;82.58;99008.75;4950202;28;20179;-66
2021/12/02 06:48:16;;;;;;;5.13;1.77;;;;;;;4.58;82.80;99007.75;4913736;29;20067;-65
2021/12/02 06:51:20;;;;;;;;;;;;;;;4.78;82.86;99005.88;4930915;29;20050;-66
2021/12/02 06:54:23;;;;;;;4.97;0.90;;;;;;;4.79;83.34;99007.56;4929928;29;19921;-67
2021/12/02 06:57:26;;;;;;;;;;;;;;;4.78;83.35;99011.88;4931138;29;20098;-66
2021/12/02 07:00:30;;;;;;;5.40;0.82;;;;;;;4.81;83.60;99009.13;4938191;29;19995;-66
2021/12/02 07:03:33;;;;;;;6.43;1.30;;;;;;;4.69;84.18;99009.81;4949495;29;20050;-66
2021/12/02 07:06:38;;;;;;;;;;;;;;;4.66;84.73;99012.56;4949848;29;20050;-66
2021/12/02 07:09:42;;;;;;;8.13;2.38;;;;;;;4.66;84.75;99017.72;4949550;29;20403;-66
2021/12/02 07:12:49;;;;;;;4.78;2.20;;;;;;;4.75;84.53;99030.16;4948829;29;20050;-66
2021/12/02 07:15:53;;;;;;;3.75;1.08;;;;;;;4.78;84.27;99026.59;4948184;29;20525;-65
2021/12/02 07:18:57;;;;;;;3.00;0.70;;;;;;;4.64;85.06;99029.91;4937540;29;20140;-66
2021/12/02 07:22:01;;;;;;;2.83;0.73;;;;;;;4.68;85.25;99034.00;4931035;29;20107;-66
2021/12/02 07:25:05;;;;;;;;;;;;;;;4.67;85.22;99029.75;4929531;29;20205;-66
2021/12/02 07:28:10;;;;;;;6.65;1.25;;;;;;;4.74;84.85;99033.69;4929589;29;20399;-66
2021/12/02 07:31:14;;;;;;;2.60;1.00;;;;;;;4.76;84.25;99034.44;4910544;29;20043;-66
2021/12/02 07:34:20;;;;;;;2.83;1.10;;;;;;;4.71;84.54;99040.78;4911408;29;20047;-66
2021/12/02 07:37:24;;;;;;;3.08;0.90;;;;;;;4.75;84.98;99032.75;4910948;29;20134;-66
2021/12/02 07:40:33;;;;;;;5.00;1.50;;;;;;;4.65;84.80;99040.16;4911347;29;20424;-66
2021/12/02 07:43:41;;;;;;;4.65;1.38;;;;;;;4.46;85.36;99041.19;4920393;29;20095;-66
2021/12/02 07:46:44;;;;;;;7.50;2.13;;;;;;;4.58;85.07;99045.75;4930463;29;20106;-65
2021/12/02 07:49:49;;;;;;;5.20;1.65;;;;;;;4.60;85.58;99043.94;4910958;29;20744;-65
2021/12/02 07:52:55;;;;;;;5.22;1.13;;;;;;;4.64;85.36;99059.22;4910912;29;20536;-66
2021/12/02 07:56:03;;;;;;;4.55;0.80;;;;;;;4.56;85.61;99047.56;4910632;29;20107;-66
2021/12/02 07:59:09;;;;;;;4.15;0.88;;;;;;;4.67;85.65;99060.81;4929176;29;20701;-65
2021/12/02 08:02:14;;;;;;;5.20;1.35;;;;;;;4.64;85.44;99061.81;4929467;29;20650;-66
2021/12/02 08:05:21;;;;;;;6.32;1.30;;;;;;;4.57;85.73;99064.81;4929479;29;20070;-65
2021/12/02 08:08:24;;;;;;;5.72;0.88;;;;;;;4.64;85.68;99071.34;4929692;29;20046;-66
2021/12/02 08:11:28;;;;;;;3.78;0.77;;;;;;;4.77;85.54;99061.19;4929634;29;20417;-66
2021/12/02 08:14:31;;;;;;;3.42;1.30;;;;;;;4.84;85.21;99068.53;4930056;29;20548;-65
2021/12/02 08:17:35;;;;;;;4.53;1.15;;;;;;;4.79;85.42;99080.06;4928546;29;20069;-66
2021/12/02 08:20:38;;;;;;;2.80;0.93;;;;;;;4.66;85.69;99080.69;4929430;29;20087;-66
2021/12/02 08:23:41;;;;;;;2.00;0.55;;;;;;;4.77;85.66;99074.13;4929047;29;20198;-66
2021/12/02 08:26:45;;;;;;;;;;;;;;;4.76;85.66;99075.88;4929806;29;20058;-66
2021/12/02 08:29:48;;;;;;;2.40;1.08;;;;;;;4.83;85.40;99079.00;4930271;29;19922;-66
2021/12/02 08:32:56;;;;;;;4.10;0.88;;;;;;;4.69;86.04;99086.63;4930036;29;20215;-66
2021/12/02 08:35:59;;;;;;;6.45;0.90;;;;;;;4.81;86.08;99094.59;4929776;29;20058;-66
2021/12/02 08:39:06;;;;;;;4.57;1.02;;;;;;;4.77;86.10;99098.25;4928375;29;20058;-66
2021/12/02 08:42:09;;;;;;;3.63;1.33;;;;;;;4.77;86.05;99106.03;4928994;29;20081;-66
2021/12/02 08:45:14;;;;;;;4.72;1.40;;;;;;;4.62;86.07;99105.03;4929221;29;20043;-66
2021/12/02 08:48:17;;;;;;;5.30;1.40;;;;;;;4.83;86.14;99103.13;4928546;29;20099;-66
2021/12/02 08:51:21;;;;;;;2.40;0.98;;;;;;;5.10;85.29;99108.63;4932313;29;20063;-66
2021/12/02 08:54:24;;;;;;;;;;;;;;;5.03;85.00;99115.03;4931775;29;20066;-66
2021/12/02 08:57:27;;;;;;;12.65;3.90;;;;;;;4.89;83.71;99110.59;4931774;29;19973;-66
2021/12/02 09:00:36;;;;;;;5.93;1.33;;;;;;;4.47;80.72;99107.56;4931776;29;20042;-66
2021/12/02 09:03:39;;;;;;;4.78;1.60;;;;;;;4.41;80.47;99106.97;4931660;29;20055;-66
2021/12/02 09:06:42;;;;;;;;;;;;;;;4.46;81.30;99109.31;4944330;29;20117;-66
2021/12/02 09:09:45;;;;;;;14.65;6.00;;;;;;;4.53;80.33;99115.03;4951770;29;20209;-65
2021/12/02 09:12:49;;;;;;;;;;;;;;;4.68;80.26;99122.03;4952922;29;20429;-66
2021/12/02 09:15:52;;;;;;;6.47;2.45;;;;;;;4.66;79.44;99131.66;4951813;29;20038;-66
2021/12/02 09:18:56;;;;;;;11.82;5.30;;;;;;;4.41;79.96;99142.38;4913807;29;20421;-65
2021/12/02 09:21:59;;;;;;;15.27;6.60;;;;;;;4.45;80.19;99137.88;4913260;29;20417;-65
2021/12/02 09:25:03;;;;;;;;;;;;;;;4.48;80.28;99140.31;4933035;29;20054;-66
2021/12/02 09:28:07;;;;;;;6.93;2.60;;;;;;;4.09;81.65;99159.47;4931611;29;19921;-66
2021/12/02 09:31:10;;;;;;;4.82;1.23;;;;;;;3.71;80.98;99160.31;4931888;29;20046;-66
2021/12/02 09:34:15;;;;;;;5.85;2.22;;;;;;;3.84;82.47;99162.34;4925734;29;20047;-66
2021/12/02 09:37:18;;;;;;;6.03;1.90;;;;;;;3.77;82.28;99171.31;4930218;29;20413;-66
2021/12/02 09:40:22;;;;;;;5.75;1.30;;;;;;;3.71;81.26;99172.41;4920642;29;20453;-66
2021/12/02 09:43:25;;;;;;;;;;;;;;;4.02;82.00;99173.56;4931820;29;20046;-66
2021/12/02 09:46:28;;;;;;;7.73;1.73;;;;;;;4.35;81.04;99179.75;4930956;29;20278;-66
2021/12/02 09:49:32;;;;;;;;;;;;;;;4.52;81.56;99176.31;4931007;29;20050;-66
2021/12/02 09:52:38;;;;;;;8.18;3.67;;;;;;;4.70;81.73;99169.41;4930920;29;19921;-66
2021/12/02 09:58:46;;;;;;;;;;;;;;;4.86;80.88;99169.47;4927085;29;20413;-66
2021/12/02 10:01:55;;;;;;;6.43;2.53;;;;;;;4.75;80.74;99174.34;4932262;29;19965;-66
2021/12/02 10:05:04;;;;;;;5.85;2.38;;;;;;;4.61;81.39;99170.69;4920298;29;20103;-66
2021/12/02 10:08:12;;;;;;;5.75;1.75;;;;;;;4.55;79.33;99172.75;4920665;29;20050;-66
2021/12/02 10:11:28;;;;;;;7.22;1.58;;;;;;;4.12;80.66;99170.50;4926322;29;20106;-65
2021/12/02 10:14:39;;;;;;;4.45;1.30;;;;;;;3.95;81.65;99178.19;4927067;29;20054;-66
2021/12/02 10:17:46;;;;;;;3.42;0.90;;;;;;;3.86;81.63;99178.63;4930240;29;20077;-66
2021/12/02 10:20:51;;;;;;;3.97;1.02;;;;;;;3.85;81.82;99177.78;4923943;29;20524;-66
2021/12/02 10:23:59;;;;;;;4.65;1.85;;;;;;;3.78;81.19;99178.97;4577968;28;10000345;-66
2021/12/02 10:27:06;;;;;;;7.85;4.07;;;;;;;3.92;81.33;99181.78;4914482;29;20065;-67
2021/12/02 10:30:23;;;;;;;2.97;1.10;;;;;;;3.91;80.11;99184.44;4925775;29;20047;-66
2021/12/02 10:33:43;;;;;;;3.53;0.80;;;;;;;3.81;80.10;99183.19;4582648;28;10000466;-66
2021/12/02 10:36:47;;;;;;;2.45;0.70;;;;;;;3.91;79.44;99182.66;4909644;29;20058;-66
2021/12/02 10:40:03;;;;;;;4.97;1.02;;;;;;;4.05;81.22;99181.19;4922458;29;20062;-67
2021/12/02 10:43:08;;;;;;;8.95;6.10;;;;;;;4.02;80.00;99181.31;4919276;29;20587;-66
2021/12/02 10:46:16;;;;;;;10.68;6.65;;;;;;;4.22;79.87;99193.34;4908132;29;20276;-66
2021/12/02 10:49:21;;;;;;;7.82;4.97;;;;;;;4.08;79.88;99192.22;4584614;29;10000606;-66
2021/12/02 10:52:27;;;;;;;3.90;1.50;;;;;;;3.84;79.81;99190.78;4925880;29;20548;-66
2021/12/02 10:55:32;;;;;;;9.20;4.13;;;;;;;3.77;79.57;99200.59;4913550;29;20042;-66
2021/12/02 10:58:35;;;;;;;6.60;3.90;;;;;;;3.79;79.96;99200.50;4912352;29;20047;-66
2021/12/02 11:01:39;;;;;;;4.80;2.15;;;;;;;3.72;79.90;99190.44;4912164;29;20569;-66
2021/12/02 11:04:45;;;;;;;8.77;4.28;;;;;;;3.73;78.81;99199.03;4919513;29;20087;-66
2021/12/02 11:08:09;;;;;;;4.40;2.42;;;;;;;3.82;79.55;99196.03;4918145;29;20054;-66
2021/12/02 11:11:22;;;;;;;9.43;5.05;;;;;;;3.86;79.21;99196.72;4918376;29;20102;-66
2021/12/02 11:14:26;;;;;;;;;;;;;;;4.07;79.17;99194.91;4915103;29;20078;-66
2021/12/02 11:17:32;;;;;;;8.48;5.28;;;;;;;4.03;78.27;99198.53;4924654;29;19957;-66
2021/12/02 11:20:38;;;;;;;8.80;5.30;;;;;;;3.95;79.16;99194.53;4927219;29;20039;-66
2021/12/02 11:23:46;;;;;;;6.75;3.50;;;;;;;3.80;78.10;99192.69;4927778;29;20051;-66
2021/12/02 11:27:09;;;;;;;6.18;2.60;;;;;;;3.75;78.03;99214.47;4924367;29;20051;-66
2021/12/02 11:30:21;;;;;;;7.80;5.05;;;;;;;3.88;77.37;99203.50;4918064;29;20550;-66
2021/12/02 11:33:35;;;;;;;11.85;7.72;;;;;;;4.12;77.70;99206.72;4925903;29;20042;-67
2021/12/02 11:36:38;;;;;;;17.20;11.27;;;;;;;3.96;78.14;99204.00;4924407;29;20678;-66
2021/12/02 11:39:42;;;;;;;6.90;3.60;;;;;;;4.08;77.14;99209.50;4929748;29;20082;-66
2021/12/02 11:42:46;;;;;;;11.25;6.63;;;;;;;4.05;77.86;99207.06;4927791;29;20054;-67
2021/12/02 11:45:52;;;;;;;4.28;1.52;;;;;;;3.82;77.48;99201.19;4928916;29;20126;-66
2021/12/02 11:48:55;;;;;;;6.20;2.90;;;;;;;3.99;75.51;99208.19;4915820;29;20111;-66
2021/12/02 11:51:59;;;;;;;6.65;2.30;;;;;;;3.79;76.14;99206.50;4926784;29;20240;-66
2021/12/02 11:55:15;;;;;;;16.25;8.02;;;;;;;4.03;76.15;99209.72;4928123;29;20138;-66
2021/12/02 11:58:18;;;;;;;2.67;1.17;;;;;;;3.46;77.08;99211.44;4925057;29;20072;-66
2021/12/02 12:01:25;;;;;;;4.10;1.52;;;;;;;3.55;77.86;99205.03;4913750;29;20461;-66
2021/12/02 12:04:29;;;;;;;5.68;1.90;;;;;;;3.61;77.51;99202.19;4915748;29;20440;-66
2021/12/02 12:07:39;;;;;;;;;;;;;;;3.64;77.17;99212.38;4928737;29;20554;-66
2021/12/02 12:10:43;;;;;;;4.82;1.00;;;;;;;3.58;76.52;99212.66;4924919;29;19922;-66
2021/12/02 12:14:07;;;;;;;2.50;0.90;;;;;;;3.43;76.44;99219.34;4910548;29;20074;-66
2021/12/02 12:17:12;;;;;;;3.20;1.02;;;;;;;3.60;75.70;99205.66;4929690;29;20186;-66
2021/12/02 12:20:18;;;;;;;4.25;1.98;;;;;;;3.61;76.14;99212.53;4915422;29;20164;-67
2021/12/02 12:23:33;;;;;;;2.53;0.73;;;;;;;3.42;75.63;99218.50;4910806;29;20048;-66
2021/12/02 12:26:38;;;;;;;4.55;2.20;;;;;;;3.48;76.26;99222.56;4917702;29;20074;-66
2021/12/02 12:29:44;;;;;;;4.78;1.58;;;;;;;3.49;75.85;99225.06;4937998;29;20136;-66
2021/12/02 12:33:00;;;;;;;3.88;0.80;;;;;;;3.29;75.60;99235.44;4925219;29;20099;-66
2021/12/02 12:36:14;;;;;;;4.50;1.50;;;;;;;3.32;75.76;99227.56;4929345;29;20540;-66
2021/12/02 12:39:19;;;;;;;5.25;1.30;;;;;;;3.34;75.79;99233.47;4920467;29;20058;-66
2021/12/02 12:42:23;;;;;;;3.45;1.40;;;;;;;3.66;76.04;99237.25;4929117;29;20087;-66
2021/12/02 12:45:37;;;;;;;3.05;1.13;;;;;;;3.49;75.90;99244.91;4924878;29;20054;-66
2021/12/02 12:48:41;;;;;;;7.75;4.10;;;;;;;3.55;75.89;99256.72;4920231;29;20050;-66
2021/12/02 12:51:53;;;;;;;13.98;8.32;;;;;;;3.60;77.09;99247.84;4921271;29;20042;-66
2021/12/02 12:55:17;;;;;;;14.98;8.90;;;;;;;3.58;77.60;99248.84;4927336;29;20099;-66
2021/12/02 12:58:26;;;;;;;4.15;1.13;;;;;;;3.33;76.02;99238.72;4924609;29;20047;-66
2021/12/02 13:01:30;;;;;;;4.50;3.03;;;;;;;3.36;77.51;99234.28;4917884;29;20422;-66
2021/12/02 13:04:48;;;;;;;7.40;2.55;;;;;;;3.80;76.50;99235.78;4914586;29;20127;-66
2021/12/02 13:08:30;;;;;;;5.53;2.03;;;;;;;3.67;75.78;99248.41;4921483;29;20129;-66
2021/12/02 13:11:34;;;;;;;6.20;3.78;;;;;;;3.84;76.64;99251.09;4913640;29;20625;-66
2021/12/02 13:14:40;;;;;;;6.75;3.90;;;;;;;4.15;76.37;99260.06;4921961;29;20054;-66
2021/12/02 13:17:46;;;;;;;5.47;2.67;;;;;;;4.23;74.15;99270.88;4932898;29;20085;-66
2021/12/02 13:20:49;;;;;;;7.00;3.55;;;;;;;4.08;74.85;99264.66;4916950;29;20067;-66
2021/12/02 13:24:11;;;;;;;9.82;4.80;;;;;;;3.91;73.12;99272.34;4921650;29;20106;-66
2021/12/02 13:27:14;;;;;;;6.22;2.10;;;;;;;3.92;74.24;99271.44;4921123;29;20046;-66
2021/12/02 13:30:18;;;;;;;11.18;4.70;;;;;;;3.87;74.06;99273.41;4924985;29;20091;-66
2021/12/02 13:33:45;;;;;;;9.82;3.08;;;;;;;3.73;72.97;99269.69;4919954;29;20086;-66
2021/12/02 13:36:53;;;;;;;6.18;1.33;;;;;;;3.64;72.57;99277.84;4913086;29;20080;-66
2021/12/02 13:39:56;;;;;;;9.80;2.35;;;;;;;3.96;72.77;99278.16;4919437;29;20409;-66
2021/12/02 13:43:00;;;;;;;6.55;3.03;;;;;;;3.94;72.49;99278.22;4932235;29;20043;-66
2021/12/02 13:46:11;;;;;;;5.68;2.13;;;;;;;3.82;73.17;99291.69;4927388;29;20179;-66
2021/12/02 13:49:20;;;;;;;8.45;3.22;;;;;;;4.19;73.56;99298.66;4923356;29;20039;-66
2021/12/02 13:55:46;;;;;;;7.00;2.58;;;;;;;4.71;73.41;99308.31;4918893;29;20295;-66
2021/12/02 13:58:49;;;;;;;4.70;2.10;;;;;;;4.83;73.01;99310.31;4922296;29;20050;-67
2021/12/02 14:01:56;;;;;;;;;;;;;;;4.60;71.80;99302.81;4922231;29;20143;-67
2021/12/02 14:05:00;;;;;;;3.95;1.13;;;;;;;4.42;71.73;99307.94;4919407;29;19978;-66
2021/12/02 14:08:05;;;;;;;;;;;;;;;4.18;72.33;99311.66;4926030;29;20038;-66
2021/12/02 14:11:09;;;;;;;5.45;2.90;;;;;;;4.00;72.33;99309.91;4923752;29;19922;-66
2021/12/02 14:14:17;;;;;;;6.30;2.38;;;;;;;3.92;73.26;99326.59;4912717;29;20188;-65
2021/12/02 14:17:21;;;;;;;13.20;3.17;;;;;;;3.56;74.88;99343.69;4920116;29;20113;-64
2021/12/02 14:20:44;;;;;;;;;;;;;;;3.41;76.64;99355.50;4931719;29;20046;-65
2021/12/02 14:23:49;;;;;;;3.22;0.80;;;;;;;3.38;75.78;99358.22;4930697;29;19925;-65
2021/12/02 14:26:53;;;;;;;5.45;0.95;;;;;;;3.35;75.04;99359.19;4922954;29;20157;-65
2021/12/02 14:30:10;;;;;;;;;;;;;;;3.40;75.43;99359.84;4921861;29;20055;-65
2021/12/02 14:33:14;;;;;;;7.32;3.20;;;;;;;3.60;75.13;99353.81;4927264;29;19970;-65
2021/12/02 14:36:20;;;;;;;4.72;1.67;;;;;;;3.86;74.53;99357.03;4925637;29;20054;-65
2021/12/02 14:39:25;;;;;;;3.70;1.10;;;;;;;3.96;77.20;99369.53;4937712;29;20050;-65
2021/12/02 14:42:28;;;;;;;5.50;1.63;;;;;;;4.05;77.88;99372.59;4914050;29;20047;-65
2021/12/02 14:45:31;;;;;;;6.40;1.92;;;;;;;4.18;77.63;99384.94;4930509;29;20118;-65
2021/12/02 14:48:35;;;;;;;;;;;;;;;4.15;76.55;99390.25;4925776;29;20071;-65
2021/12/02 14:56:27;;;;;;;5.57;2.03;;;;;;;4.31;76.63;99405.09;4912414;29;20337;-65
2021/12/02 14:59:32;;;;;;;6.25;1.20;;;;;;;4.18;75.90;99415.16;4917400;29;20051;-65
2021/12/02 15:02:40;;;;;;;4.13;1.83;;;;;;;4.12;75.36;99426.59;4926209;29;20629;-65
2021/12/02 15:05:43;;;;;;;8.70;3.33;;;;;;;3.48;75.55;99429.31;4921487;29;20110;-65
2021/12/02 15:08:47;;;;;;;;;;;;;;;3.68;76.18;99444.00;4922438;29;20047;-65
2021/12/02 15:11:50;;;;;;;7.30;3.72;;;;;;;3.87;77.08;99446.66;4911765;29;19922;-65
2021/12/02 15:14:53;;;;;;;;;;;;;;;3.95;75.51;99444.56;4929510;29;20164;-66
2021/12/02 15:18:03;;;;;;;6.40;1.77;;;;;;;3.25;76.14;99461.22;4912518;29;19921;-64
2021/12/02 15:21:08;;;;;;;9.35;2.30;;;;;;;2.94;78.24;99459.84;4925043;29;20042;-65
2021/12/02 15:24:11;;;;;;;8.70;2.58;;;;;;;3.11;78.55;99468.66;4930534;29;20131;-64
2021/12/02 15:27:23;;;;;;;11.65;4.22;;;;;;;2.80;79.96;99478.41;4923965;29;20584;-65
2021/12/02 15:30:52;;;;;;;34.30;12.70;;;;;;;2.98;80.24;99482.03;4917597;29;20094;-65
2021/12/02 15:34:00;;;;;;;10.25;4.03;;;;;;;2.66;80.48;99495.31;4927878;29;20043;-64
2021/12/02 15:37:04;;;;;;;22.90;13.13;;;;;;;2.82;80.35;99499.00;4924660;29;20071;-65
2021/12/02 15:40:07;;;;;;;;;;;;;;;3.26;79.03;99502.50;4926893;29;20047;-64
2021/12/02 15:43:27;;;;;;;5.65;3.28;;;;;;;3.35;77.57;99521.97;4929603;29;20021;-65
2021/12/02 15:46:36;;;;;;;4.75;1.60;;;;;;;3.34;79.53;99530.63;4930123;29;20046;-64
2021/12/02 15:49:48;;;;;;;3.72;1.30;;;;;;;3.60;78.80;99528.75;4934679;29;20259;-65
2021/12/02 15:52:52;;;;;;;5.95;2.00;;;;;;;3.38;77.71;99532.19;4948935;29;20062;-65
2021/12/02 15:55:55;;;;;;;8.15;4.45;;;;;;;3.30;78.38;99534.22;4930940;29;20055;-65
2021/12/02 15:58:59;;;;;;;5.90;3.70;;;;;;;3.43;78.94;99550.94;4929140;29;20039;-65